sensor_id;sensor_type;location;lat;lon;timestamp;pressure;altitude;pressure_sealevel;temperature;humidity
37694;BME280;23531;50.122;8.644;2023-02-28T00:00:33;101690.78;;;3.21;52.22
37694;BME280;23531;50.122;8.644;2023-02-28T00:02:34;101691.97;;;2.87;52.48
37694;BME280;23531;50.122;8.644;2023-02-28T00:04:36;101688.28;;;2.78;52.57
37694;BME280;23531;50.122;8.644;2023-02-28T00:06:37;101689.94;;;2.59;53.19
37694;BME280;23531;50.122;8.644;2023-02-28T00:08:39;101691.00;;;2.35;54.49
37694;BME280;23531;50.122;8.644;2023-02-28T00:10:41;101690.56;;;2.19;55.04
37694;BME280;23531;50.122;8.644;2023-02-28T00:12:42;101689.72;;;2.18;55.29
37694;BME280;23531;50.122;8.644;2023-02-28T00:14:43;101692.03;;;2.12;55.80
37694;BME280;23531;50.122;8.644;2023-02-28T00:16:44;101689.13;;;2.04;55.99
37694;BME280;23531;50.122;8.644;2023-02-28T00:18:46;101691.78;;;2.04;56.26
37694;BME280;23531;50.122;8.644;2023-02-28T00:20:48;101696.00;;;2.06;56.39
37694;BME280;23531;50.122;8.644;2023-02-28T00:22:50;101694.44;;;2.04;56.12
37694;BME280;23531;50.122;8.644;2023-02-28T00:24:53;101700.25;;;1.98;56.67
37694;BME280;23531;50.122;8.644;2023-02-28T00:26:54;101690.50;;;1.98;56.83
37694;BME280;23531;50.122;8.644;2023-02-28T00:28:55;101694.94;;;1.98;56.74
37694;BME280;23531;50.122;8.644;2023-02-28T00:30:57;101686.03;;;1.99;56.61
37694;BME280;23531;50.122;8.644;2023-02-28T00:32:59;101696.81;;;2.18;56.13
37694;BME280;23531;50.122;8.644;2023-02-28T00:35:01;101701.97;;;1.88;57.30
37694;BME280;23531;50.122;8.644;2023-02-28T00:37:02;101696.16;;;1.94;57.07
37694;BME280;23531;50.122;8.644;2023-02-28T00:39:03;101701.75;;;1.79;57.66
37694;BME280;23531;50.122;8.644;2023-02-28T00:41:06;101703.88;;;1.86;57.78
37694;BME280;23531;50.122;8.644;2023-02-28T00:43:08;101697.72;;;1.85;57.75
37694;BME280;23531;50.122;8.644;2023-02-28T00:45:09;101695.78;;;2.09;57.57
37694;BME280;23531;50.122;8.644;2023-02-28T00:47:10;101692.88;;;2.44;56.99
37694;BME280;23531;50.122;8.644;2023-02-28T00:49:12;101698.59;;;2.61;56.17
37694;BME280;23531;50.122;8.644;2023-02-28T00:51:13;101698.53;;;2.51;55.83
37694;BME280;23531;50.122;8.644;2023-02-28T00:53:14;101689.66;;;2.62;55.56
37694;BME280;23531;50.122;8.644;2023-02-28T00:55:16;101689.16;;;2.68;55.14
37694;BME280;23531;50.122;8.644;2023-02-28T00:57:19;101695.19;;;2.70;55.13
37694;BME280;23531;50.122;8.644;2023-02-28T00:59:21;101691.09;;;2.66;55.16
37694;BME280;23531;50.122;8.644;2023-02-28T01:01:22;101696.41;;;2.66;54.99
37694;BME280;23531;50.122;8.644;2023-02-28T01:03:23;101695.03;;;2.71;55.04
37694;BME280;23531;50.122;8.644;2023-02-28T01:05:25;101695.16;;;2.81;54.97
37694;BME280;23531;50.122;8.644;2023-02-28T01:07:26;101700.72;;;2.78;54.95
37694;BME280;23531;50.122;8.644;2023-02-28T01:09:27;101696.84;;;2.82;54.60
37694;BME280;23531;50.122;8.644;2023-02-28T01:11:28;101691.66;;;2.48;55.47
37694;BME280;23531;50.122;8.644;2023-02-28T01:13:31;101696.19;;;2.37;55.92
37694;BME280;23531;50.122;8.644;2023-02-28T01:15:32;101690.00;;;1.93;58.17
37694;BME280;23531;50.122;8.644;2023-02-28T01:17:34;101696.44;;;1.79;58.93
37694;BME280;23531;50.122;8.644;2023-02-28T01:19:35;101696.28;;;1.70;59.47
37694;BME280;23531;50.122;8.644;2023-02-28T01:21:36;101693.28;;;1.74;59.43
37694;BME280;23531;50.122;8.644;2023-02-28T01:23:38;101690.88;;;1.60;60.23
37694;BME280;23531;50.122;8.644;2023-02-28T01:25:39;101692.22;;;1.55;60.58
37694;BME280;23531;50.122;8.644;2023-02-28T01:27:40;101684.38;;;1.53;61.00
37694;BME280;23531;50.122;8.644;2023-02-28T01:29:43;101690.16;;;1.69;61.27
37694;BME280;23531;50.122;8.644;2023-02-28T01:31:44;101684.03;;;1.69;60.66
37694;BME280;23531;50.122;8.644;2023-02-28T01:33:45;101694.25;;;1.85;60.46
37694;BME280;23531;50.122;8.644;2023-02-28T01:35:47;101685.44;;;1.73;60.48
37694;BME280;23531;50.122;8.644;2023-02-28T01:37:48;101684.84;;;1.69;60.63
37694;BME280;23531;50.122;8.644;2023-02-28T01:39:49;101688.00;;;1.74;60.85
37694;BME280;23531;50.122;8.644;2023-02-28T01:41:51;101685.84;;;1.68;60.89
37694;BME280;23531;50.122;8.644;2023-02-28T01:43:56;101686.19;;;1.64;60.73
37694;BME280;23531;50.122;8.644;2023-02-28T01:45:59;101675.44;;;1.76;61.00
37694;BME280;23531;50.122;8.644;2023-02-28T01:48:02;101672.50;;;2.13;60.67
37694;BME280;23531;50.122;8.644;2023-02-28T01:50:06;101677.88;;;2.23;59.38
37694;BME280;23531;50.122;8.644;2023-02-28T01:52:08;101667.34;;;2.32;59.38
37694;BME280;23531;50.122;8.644;2023-02-28T01:54:18;101668.44;;;2.30;59.01
37694;BME280;23531;50.122;8.644;2023-02-28T01:56:22;101670.84;;;2.33;59.02
37694;BME280;23531;50.122;8.644;2023-02-28T01:58:25;101671.34;;;2.27;58.97
37694;BME280;23531;50.122;8.644;2023-02-28T02:00:26;101667.59;;;2.29;58.94
37694;BME280;23531;50.122;8.644;2023-02-28T02:02:29;101669.75;;;2.35;58.79
37694;BME280;23531;50.122;8.644;2023-02-28T02:04:32;101666.75;;;2.29;58.77
37694;BME280;23531;50.122;8.644;2023-02-28T02:06:37;101662.03;;;2.32;59.18
37694;BME280;23531;50.122;8.644;2023-02-28T02:08:39;101663.78;;;2.22;58.42
37694;BME280;23531;50.122;8.644;2023-02-28T02:10:41;101668.25;;;2.22;58.48
37694;BME280;23531;50.122;8.644;2023-02-28T02:12:48;101661.91;;;2.34;58.73
37694;BME280;23531;50.122;8.644;2023-02-28T02:14:57;101664.47;;;2.35;58.36
37694;BME280;23531;50.122;8.644;2023-02-28T02:17:07;101655.13;;;2.41;58.38
37694;BME280;23531;50.122;8.644;2023-02-28T02:19:20;101665.66;;;2.31;58.25
37694;BME280;23531;50.122;8.644;2023-02-28T02:23:52;101661.38;;;2.19;58.69
37694;BME280;23531;50.122;8.644;2023-02-28T02:26:01;101664.75;;;2.21;59.09
37694;BME280;23531;50.122;8.644;2023-02-28T02:28:21;101662.09;;;2.21;58.88
37694;BME280;23531;50.122;8.644;2023-02-28T02:30:33;101654.00;;;2.23;58.61
37694;BME280;23531;50.122;8.644;2023-02-28T02:33:06;101657.75;;;2.20;58.68
37694;BME280;23531;50.122;8.644;2023-02-28T02:35:13;101658.00;;;2.17;58.38
37694;BME280;23531;50.122;8.644;2023-02-28T02:37:19;101657.47;;;1.91;59.36
37694;BME280;23531;50.122;8.644;2023-02-28T02:39:27;101658.25;;;2.14;59.02
37694;BME280;23531;50.122;8.644;2023-02-28T02:41:33;101657.13;;;2.16;58.73
37694;BME280;23531;50.122;8.644;2023-02-28T02:43:36;101658.84;;;2.17;58.62
37694;BME280;23531;50.122;8.644;2023-02-28T02:45:41;101652.09;;;2.13;58.48
37694;BME280;23531;50.122;8.644;2023-02-28T02:47:45;101658.38;;;2.12;58.28
37694;BME280;23531;50.122;8.644;2023-02-28T02:49:47;101661.38;;;2.19;58.20
37694;BME280;23531;50.122;8.644;2023-02-28T02:51:51;101661.38;;;2.19;58.19
37694;BME280;23531;50.122;8.644;2023-02-28T02:53:55;101669.13;;;2.11;57.67
37694;BME280;23531;50.122;8.644;2023-02-28T02:55:59;101658.50;;;2.11;57.88
37694;BME280;23531;50.122;8.644;2023-02-28T02:58:02;101660.44;;;2.09;57.85
37694;BME280;23531;50.122;8.644;2023-02-28T03:00:05;101664.53;;;2.13;57.67
37694;BME280;23531;50.122;8.644;2023-02-28T03:02:10;101661.88;;;2.13;57.76
37694;BME280;23531;50.122;8.644;2023-02-28T03:04:14;101660.91;;;2.14;57.72
37694;BME280;23531;50.122;8.644;2023-02-28T03:06:18;101659.59;;;2.08;57.83
37694;BME280;23531;50.122;8.644;2023-02-28T03:08:20;101666.69;;;2.08;57.90
37694;BME280;23531;50.122;8.644;2023-02-28T03:10:26;101661.03;;;2.12;57.59
37694;BME280;23531;50.122;8.644;2023-02-28T03:12:31;101664.06;;;2.08;57.51
37694;BME280;23531;50.122;8.644;2023-02-28T03:14:40;101654.28;;;2.08;57.60
37694;BME280;23531;50.122;8.644;2023-02-28T03:16:49;101654.28;;;2.08;57.34
37694;BME280;23531;50.122;8.644;2023-02-28T03:18:58;101657.09;;;1.96;57.89
37694;BME280;23531;50.122;8.644;2023-02-28T03:21:03;101658.69;;;1.87;57.71
37694;BME280;23531;50.122;8.644;2023-02-28T03:23:10;101651.69;;;1.86;57.91
37694;BME280;23531;50.122;8.644;2023-02-28T03:25:18;101654.56;;;1.83;57.75
37694;BME280;23531;50.122;8.644;2023-02-28T03:27:23;101658.91;;;1.84;57.76
37694;BME280;23531;50.122;8.644;2023-02-28T03:29:27;101656.06;;;1.76;57.92
37694;BME280;23531;50.122;8.644;2023-02-28T03:31:30;101654.00;;;1.79;57.91
37694;BME280;23531;50.122;8.644;2023-02-28T03:33:34;101656.50;;;1.81;58.33
37694;BME280;23531;50.122;8.644;2023-02-28T03:35:38;101654.47;;;1.73;57.89
37694;BME280;23531;50.122;8.644;2023-02-28T03:37:41;101643.66;;;1.65;58.52
37694;BME280;23531;50.122;8.644;2023-02-28T03:39:45;101647.16;;;1.66;58.52
37694;BME280;23531;50.122;8.644;2023-02-28T03:41:51;101654.03;;;1.57;58.28
37694;BME280;23531;50.122;8.644;2023-02-28T03:43:54;101660.41;;;1.55;58.60
37694;BME280;23531;50.122;8.644;2023-02-28T03:45:56;101657.66;;;1.56;58.74
37694;BME280;23531;50.122;8.644;2023-02-28T03:48:00;101656.91;;;1.54;58.80
37694;BME280;23531;50.122;8.644;2023-02-28T03:50:05;101652.09;;;1.48;58.27
37694;BME280;23531;50.122;8.644;2023-02-28T03:52:08;101658.22;;;1.49;58.58
37694;BME280;23531;50.122;8.644;2023-02-28T03:54:11;101659.06;;;1.49;58.73
37694;BME280;23531;50.122;8.644;2023-02-28T03:56:15;101653.19;;;1.45;58.58
37694;BME280;23531;50.122;8.644;2023-02-28T03:58:20;101659.91;;;1.50;58.60
37694;BME280;23531;50.122;8.644;2023-02-28T04:00:26;101650.16;;;1.50;58.85
37694;BME280;23531;50.122;8.644;2023-02-28T04:02:29;101660.88;;;1.49;58.56
37694;BME280;23531;50.122;8.644;2023-02-28T04:04:30;101663.53;;;1.49;59.01
37694;BME280;23531;50.122;8.644;2023-02-28T04:06:32;101658.34;;;1.47;58.87
37694;BME280;23531;50.122;8.644;2023-02-28T04:08:34;101661.00;;;1.36;59.20
37694;BME280;23531;50.122;8.644;2023-02-28T04:10:35;101659.56;;;1.32;59.34
37694;BME280;23531;50.122;8.644;2023-02-28T04:12:37;101657.28;;;1.38;59.20
37694;BME280;23531;50.122;8.644;2023-02-28T04:14:39;101662.69;;;1.37;59.51
37694;BME280;23531;50.122;8.644;2023-02-28T04:16:41;101662.34;;;1.30;59.48
37694;BME280;23531;50.122;8.644;2023-02-28T04:18:43;101661.72;;;1.27;59.47
37694;BME280;23531;50.122;8.644;2023-02-28T04:20:44;101665.44;;;1.24;59.81
37694;BME280;23531;50.122;8.644;2023-02-28T04:22:45;101663.19;;;1.31;59.96
37694;BME280;23531;50.122;8.644;2023-02-28T04:24:47;101667.41;;;1.33;59.81
37694;BME280;23531;50.122;8.644;2023-02-28T04:26:48;101663.53;;;1.37;59.93
37694;BME280;23531;50.122;8.644;2023-02-28T04:28:50;101663.41;;;1.39;60.00
37694;BME280;23531;50.122;8.644;2023-02-28T04:30:55;101653.06;;;1.36;59.70
37694;BME280;23531;50.122;8.644;2023-02-28T04:32:57;101665.84;;;1.31;60.02
37694;BME280;23531;50.122;8.644;2023-02-28T04:34:58;101663.19;;;1.31;60.15
37694;BME280;23531;50.122;8.644;2023-02-28T04:36:59;101668.72;;;1.28;60.22
37694;BME280;23531;50.122;8.644;2023-02-28T04:39:00;101666.56;;;1.33;60.28
37694;BME280;23531;50.122;8.644;2023-02-28T04:41:02;101665.50;;;1.35;60.20
37694;BME280;23531;50.122;8.644;2023-02-28T04:43:03;101663.91;;;1.33;60.12
37694;BME280;23531;50.122;8.644;2023-02-28T04:45:05;101664.75;;;1.33;60.15
37694;BME280;23531;50.122;8.644;2023-02-28T04:47:09;101665.00;;;1.41;60.19
37694;BME280;23531;50.122;8.644;2023-02-28T04:49:10;101663.91;;;1.44;60.01
37694;BME280;23531;50.122;8.644;2023-02-28T04:51:13;101663.66;;;1.36;60.42
37694;BME280;23531;50.122;8.644;2023-02-28T04:53:14;101663.91;;;1.44;60.20
37694;BME280;23531;50.122;8.644;2023-02-28T04:55:15;101661.38;;;1.54;59.80
37694;BME280;23531;50.122;8.644;2023-02-28T04:57:17;101659.81;;;1.51;59.98
37694;BME280;23531;50.122;8.644;2023-02-28T04:59:18;101653.66;;;1.51;59.89
37694;BME280;23531;50.122;8.644;2023-02-28T05:01:20;101657.88;;;1.53;59.41
37694;BME280;23531;50.122;8.644;2023-02-28T05:03:23;101661.59;;;1.51;59.57
37694;BME280;23531;50.122;8.644;2023-02-28T05:05:25;101654.72;;;1.48;59.49
37694;BME280;23531;50.122;8.644;2023-02-28T05:07:26;101657.88;;;1.53;59.48
37694;BME280;23531;50.122;8.644;2023-02-28T05:09:27;101660.88;;;1.49;59.42
37694;BME280;23531;50.122;8.644;2023-02-28T05:11:29;101665.09;;;1.51;59.60
37694;BME280;23531;50.122;8.644;2023-02-28T05:13:34;101661.38;;;1.54;59.05
37694;BME280;23531;50.122;8.644;2023-02-28T05:15:36;101663.41;;;1.50;59.11
37694;BME280;23531;50.122;8.644;2023-02-28T05:17:37;101662.00;;;1.46;59.52
37694;BME280;23531;50.122;8.644;2023-02-28T05:19:39;101667.63;;;1.53;59.20
37694;BME280;23531;50.122;8.644;2023-02-28T05:21:41;101669.94;;;1.46;58.91
37694;BME280;23531;50.122;8.644;2023-02-28T05:23:48;101662.84;;;1.47;58.56
37694;BME280;23531;50.122;8.644;2023-02-28T05:25:50;101679.19;;;1.52;58.61
37694;BME280;23531;50.122;8.644;2023-02-28T05:27:52;101675.09;;;1.48;58.58
37694;BME280;23531;50.122;8.644;2023-02-28T05:29:53;101672.44;;;1.36;58.84
37694;BME280;23531;50.122;8.644;2023-02-28T05:31:54;101673.78;;;1.31;58.80
37694;BME280;23531;50.122;8.644;2023-02-28T05:33:56;101677.41;;;1.30;59.35
37694;BME280;23531;50.122;8.644;2023-02-28T05:35:58;101677.41;;;1.30;59.20
37694;BME280;23531;50.122;8.644;2023-02-28T05:38:00;101673.06;;;1.40;59.42
37694;BME280;23531;50.122;8.644;2023-02-28T05:40:01;101669.94;;;1.46;59.29
37694;BME280;23531;50.122;8.644;2023-02-28T05:42:06;101673.66;;;1.43;58.77
37694;BME280;23531;50.122;8.644;2023-02-28T05:44:08;101675.94;;;1.48;58.90
37694;BME280;23531;50.122;8.644;2023-02-28T05:46:10;101679.19;;;1.40;58.63
37694;BME280;23531;50.122;8.644;2023-02-28T05:48:12;101678.84;;;1.45;58.95
37694;BME280;23531;50.122;8.644;2023-02-28T05:50:13;101679.31;;;1.39;58.52
37694;BME280;23531;50.122;8.644;2023-02-28T05:52:16;101677.41;;;1.52;58.20
37694;BME280;23531;50.122;8.644;2023-02-28T05:54:17;101687.50;;;1.47;58.45
37694;BME280;23531;50.122;8.644;2023-02-28T05:56:18;101681.38;;;1.47;58.27
37694;BME280;23531;50.122;8.644;2023-02-28T05:58:20;101686.69;;;1.35;58.14
37694;BME280;23531;50.122;8.644;2023-02-28T06:00:21;101678.59;;;1.37;58.24
37694;BME280;23531;50.122;8.644;2023-02-28T06:02:22;101677.06;;;1.34;58.37
37694;BME280;23531;50.122;8.644;2023-02-28T06:04:24;101678.59;;;1.26;58.43
37694;BME280;23531;50.122;8.644;2023-02-28T06:06:25;101687.88;;;1.20;58.50
37694;BME280;23531;50.122;8.644;2023-02-28T06:08:28;101684.50;;;1.18;58.85
37694;BME280;23531;50.122;8.644;2023-02-28T06:10:29;101681.84;;;1.29;58.95
37694;BME280;23531;50.122;8.644;2023-02-28T06:12:30;101678.75;;;1.35;58.44
37694;BME280;23531;50.122;8.644;2023-02-28T06:14:32;101680.28;;;1.27;58.59
37694;BME280;23531;50.122;8.644;2023-02-28T06:16:34;101683.78;;;1.27;58.47
37694;BME280;23531;50.122;8.644;2023-02-28T06:18:35;101681.72;;;1.20;58.44
37694;BME280;23531;50.122;8.644;2023-02-28T06:20:37;101688.94;;;1.18;58.68
37694;BME280;23531;50.122;8.644;2023-02-28T06:22:38;101684.59;;;1.17;58.36
37694;BME280;23531;50.122;8.644;2023-02-28T06:24:40;101692.78;;;1.14;58.29
37694;BME280;23531;50.122;8.644;2023-02-28T06:26:42;101692.19;;;1.10;58.55
37694;BME280;23531;50.122;8.644;2023-02-28T06:28:43;101696.16;;;1.16;58.39
37694;BME280;23531;50.122;8.644;2023-02-28T06:30:44;101691.81;;;1.03;58.50
37694;BME280;23531;50.122;8.644;2023-02-28T06:32:45;101705.03;;;1.03;59.10
37694;BME280;23531;50.122;8.644;2023-02-28T06:34:49;101705.03;;;1.03;59.08
37694;BME280;23531;50.122;8.644;2023-02-28T06:36:51;101705.53;;;1.08;58.89
37694;BME280;23531;50.122;8.644;2023-02-28T06:38:52;101710.97;;;1.18;58.67
37694;BME280;23531;50.122;8.644;2023-02-28T06:40:57;101703.16;;;1.17;58.28
37694;BME280;23531;50.122;8.644;2023-02-28T06:42:59;101714.25;;;1.22;58.34
37694;BME280;23531;50.122;8.644;2023-02-28T06:45:00;101708.47;;;1.28;58.26
37694;BME280;23531;50.122;8.644;2023-02-28T06:47:03;101714.38;;;1.20;58.05
37694;BME280;23531;50.122;8.644;2023-02-28T06:49:05;101712.78;;;1.18;58.34
37694;BME280;23531;50.122;8.644;2023-02-28T06:51:09;101713.75;;;1.17;57.93
37694;BME280;23531;50.122;8.644;2023-02-28T06:53:10;101717.22;;;1.17;58.11
37694;BME280;23531;50.122;8.644;2023-02-28T06:55:12;101715.69;;;1.26;58.51
37694;BME280;23531;50.122;8.644;2023-02-28T06:57:14;101717.75;;;1.22;58.06
37694;BME280;23531;50.122;8.644;2023-02-28T06:59:16;101718.94;;;1.18;58.17
37694;BME280;23531;50.122;8.644;2023-02-28T07:01:17;101718.59;;;1.23;58.15
37694;BME280;23531;50.122;8.644;2023-02-28T07:03:19;101721.25;;;1.34;58.25
37694;BME280;23531;50.122;8.644;2023-02-28T07:05:20;101726.06;;;1.40;57.75
37694;BME280;23531;50.122;8.644;2023-02-28T07:07:21;101722.31;;;1.31;57.40
37694;BME280;23531;50.122;8.644;2023-02-28T07:09:23;101729.53;;;1.29;56.85
37694;BME280;23531;50.122;8.644;2023-02-28T07:11:25;101718.81;;;1.20;57.42
37694;BME280;23531;50.122;8.644;2023-02-28T07:13:28;101730.63;;;1.27;57.27
37694;BME280;23531;50.122;8.644;2023-02-28T07:15:29;101734.97;;;1.39;57.48
37694;BME280;23531;50.122;8.644;2023-02-28T07:17:30;101734.00;;;1.40;57.38
37694;BME280;23531;50.122;8.644;2023-02-28T07:19:32;101731.13;;;1.43;57.23
37694;BME280;23531;50.122;8.644;2023-02-28T07:21:33;101736.78;;;1.50;57.15
37694;BME280;23531;50.122;8.644;2023-02-28T07:23:35;101736.78;;;1.50;57.10
37694;BME280;23531;50.122;8.644;2023-02-28T07:25:37;101729.44;;;1.42;56.86
37694;BME280;23531;50.122;8.644;2023-02-28T07:27:39;101730.16;;;1.44;56.60
37694;BME280;23531;50.122;8.644;2023-02-28T07:29:41;101735.59;;;1.42;57.24
37694;BME280;23531;50.122;8.644;2023-02-28T07:31:43;101725.22;;;1.51;56.84
37694;BME280;23531;50.122;8.644;2023-02-28T07:33:44;101729.09;;;1.58;56.52
37694;BME280;23531;50.122;8.644;2023-02-28T07:35:45;101732.44;;;1.60;57.07
37694;BME280;23531;50.122;8.644;2023-02-28T07:37:47;101730.75;;;1.59;56.75
37694;BME280;23531;50.122;8.644;2023-02-28T07:39:48;101733.19;;;1.62;56.49
37694;BME280;23531;50.122;8.644;2023-02-28T07:41:49;101733.19;;;1.62;56.18
37694;BME280;23531;50.122;8.644;2023-02-28T07:43:52;101732.44;;;1.71;56.33
37694;BME280;23531;50.122;8.644;2023-02-28T07:45:55;101724.50;;;1.71;56.38
37694;BME280;23531;50.122;8.644;2023-02-28T07:47:57;101728.09;;;1.81;56.56
37694;BME280;23531;50.122;8.644;2023-02-28T07:49:58;101731.25;;;1.86;56.63
37694;BME280;23531;50.122;8.644;2023-02-28T07:51:59;101728.00;;;1.82;56.36
37694;BME280;23531;50.122;8.644;2023-02-28T07:54:00;101727.75;;;1.86;56.52
37694;BME280;23531;50.122;8.644;2023-02-28T07:56:02;101730.16;;;1.89;56.54
37694;BME280;23531;50.122;8.644;2023-02-28T07:58:04;101737.75;;;1.93;56.57
37694;BME280;23531;50.122;8.644;2023-02-28T08:00:06;101741.34;;;1.92;56.57
37694;BME280;23531;50.122;8.644;2023-02-28T08:02:11;101737.38;;;1.98;56.62
37694;BME280;23531;50.122;8.644;2023-02-28T08:04:13;101747.66;;;1.91;56.56
37694;BME280;23531;50.122;8.644;2023-02-28T08:06:16;101741.38;;;1.70;57.56
37694;BME280;23531;50.122;8.644;2023-02-28T08:08:17;101737.91;;;1.92;57.36
37694;BME280;23531;50.122;8.644;2023-02-28T08:10:18;101738.69;;;1.92;56.77
37694;BME280;23531;50.122;8.644;2023-02-28T08:12:20;101741.88;;;1.75;55.77
37694;BME280;23531;50.122;8.644;2023-02-28T08:14:21;101744.16;;;1.79;56.52
37694;BME280;23531;50.122;8.644;2023-02-28T08:16:22;101741.63;;;1.78;56.45
37694;BME280;23531;50.122;8.644;2023-02-28T08:18:25;101747.66;;;1.91;55.67
37694;BME280;23531;50.122;8.644;2023-02-28T08:20:26;101735.91;;;2.05;55.19
37694;BME280;23531;50.122;8.644;2023-02-28T08:22:27;101730.72;;;2.14;53.56
37694;BME280;23531;50.122;8.644;2023-02-28T08:24:29;101744.50;;;1.97;53.26
37694;BME280;23531;50.122;8.644;2023-02-28T08:26:30;101748.09;;;2.07;53.74
37694;BME280;23531;50.122;8.644;2023-02-28T08:28:32;101736.75;;;2.16;52.00
37694;BME280;23531;50.122;8.644;2023-02-28T08:30:33;101729.19;;;2.12;51.09
37694;BME280;23531;50.122;8.644;2023-02-28T08:32:34;101731.66;;;2.36;51.30
37694;BME280;23531;50.122;8.644;2023-02-28T08:34:37;101739.31;;;2.50;50.05
37694;BME280;23531;50.122;8.644;2023-02-28T08:36:39;101737.09;;;2.34;49.30
37694;BME280;23531;50.122;8.644;2023-02-28T08:38:41;101739.25;;;2.29;49.65
37694;BME280;23531;50.122;8.644;2023-02-28T08:40:42;101737.13;;;2.23;48.95
37694;BME280;23531;50.122;8.644;2023-02-28T08:42:43;101735.63;;;2.30;49.14
37694;BME280;23531;50.122;8.644;2023-02-28T08:44:44;101736.47;;;2.31;48.80
37694;BME280;23531;50.122;8.644;2023-02-28T08:46:46;101738.91;;;2.34;48.47
37694;BME280;23531;50.122;8.644;2023-02-28T08:48:51;101752.00;;;2.46;48.51
37694;BME280;23531;50.122;8.644;2023-02-28T08:50:57;101736.34;;;2.32;48.26
37694;BME280;23531;50.122;8.644;2023-02-28T08:52:58;101738.50;;;2.38;48.30
37694;BME280;23531;50.122;8.644;2023-02-28T08:55:00;101740.91;;;2.41;47.74
37694;BME280;23531;50.122;8.644;2023-02-28T08:57:01;101738.38;;;2.40;47.46
37694;BME280;23531;50.122;8.644;2023-02-28T08:59:03;101742.59;;;2.42;47.89
37694;BME280;23531;50.122;8.644;2023-02-28T09:01:07;101744.38;;;2.53;47.65
37694;BME280;23531;50.122;8.644;2023-02-28T09:03:09;101742.69;;;2.52;47.47
37694;BME280;23531;50.122;8.644;2023-02-28T09:05:10;101737.81;;;2.68;47.04
37694;BME280;23531;50.122;8.644;2023-02-28T09:07:13;101742.69;;;2.84;46.87
37694;BME280;23531;50.122;8.644;2023-02-28T09:09:14;101737.31;;;2.95;47.03
37694;BME280;23531;50.122;8.644;2023-02-28T09:11:15;101740.88;;;2.84;46.18
37694;BME280;23531;50.122;8.644;2023-02-28T09:13:18;101737.66;;;2.81;45.82
37694;BME280;23531;50.122;8.644;2023-02-28T09:15:19;101744.13;;;2.88;46.46
37694;BME280;23531;50.122;8.644;2023-02-28T09:17:21;101734.16;;;2.80;45.82
37694;BME280;23531;50.122;8.644;2023-02-28T09:19:22;101732.06;;;2.84;46.04
37694;BME280;23531;50.122;8.644;2023-02-28T09:21:23;101742.13;;;3.01;45.95
37694;BME280;23531;50.122;8.644;2023-02-28T09:23:26;101730.78;;;2.99;45.09
37694;BME280;23531;50.122;8.644;2023-02-28T09:25:27;101733.25;;;2.91;44.69
37694;BME280;23531;50.122;8.644;2023-02-28T09:27:28;101740.69;;;2.97;44.41
37694;BME280;23531;50.122;8.644;2023-02-28T09:29:29;101736.69;;;2.82;44.83
37694;BME280;23531;50.122;8.644;2023-02-28T09:31:31;101730.38;;;2.83;45.49
37694;BME280;23531;50.122;8.644;2023-02-28T09:33:32;101722.16;;;3.07;44.56
37694;BME280;23531;50.122;8.644;2023-02-28T09:35:34;101729.88;;;3.10;44.40
37694;BME280;23531;50.122;8.644;2023-02-28T09:37:37;101740.13;;;3.14;43.83
37694;BME280;23531;50.122;8.644;2023-02-28T09:39:39;101727.53;;;3.16;43.50
37694;BME280;23531;50.122;8.644;2023-02-28T09:41:41;101726.00;;;3.14;43.47
37694;BME280;23531;50.122;8.644;2023-02-28T09:43:49;101725.09;;;3.24;43.80
37694;BME280;23531;50.122;8.644;2023-02-28T09:45:51;101725.72;;;3.17;43.30
37694;BME280;23531;50.122;8.644;2023-02-28T09:47:58;101734.03;;;3.23;42.83
37694;BME280;23531;50.122;8.644;2023-02-28T09:50:06;101727.91;;;3.33;43.51
37694;BME280;23531;50.122;8.644;2023-02-28T09:52:14;101730.88;;;3.39;42.49
37694;BME280;23531;50.122;8.644;2023-02-28T09:54:17;101738.34;;;3.45;42.59
37694;BME280;23531;50.122;8.644;2023-02-28T09:56:21;101726.88;;;3.45;42.23
37694;BME280;23531;50.122;8.644;2023-02-28T09:58:28;101725.47;;;3.50;42.12
37694;BME280;23531;50.122;8.644;2023-02-28T10:00:32;101727.38;;;3.59;42.65
37694;BME280;23531;50.122;8.644;2023-02-28T10:02:46;101722.97;;;3.79;41.44
37694;BME280;23531;50.122;8.644;2023-02-28T10:04:54;101718.31;;;3.72;41.58
37694;BME280;23531;50.122;8.644;2023-02-28T10:06:57;101722.38;;;3.76;41.66
37694;BME280;23531;50.122;8.644;2023-02-28T10:09:00;101725.19;;;3.84;41.73
37694;BME280;23531;50.122;8.644;2023-02-28T10:11:02;101722.28;;;3.87;41.10
37694;BME280;23531;50.122;8.644;2023-02-28T10:13:14;101730.16;;;3.98;41.08
37694;BME280;23531;50.122;8.644;2023-02-28T10:15:17;101733.81;;;4.07;41.01
37694;BME280;23531;50.122;8.644;2023-02-28T10:17:19;101738.63;;;4.13;41.45
37694;BME280;23531;50.122;8.644;2023-02-28T10:19:23;101732.19;;;4.25;40.75
37694;BME280;23531;50.122;8.644;2023-02-28T10:21:28;101732.31;;;4.14;40.44
37694;BME280;23531;50.122;8.644;2023-02-28T10:23:31;101727.63;;;3.96;40.97
37694;BME280;23531;50.122;8.644;2023-02-28T10:25:35;101724.13;;;3.96;40.85
37694;BME280;23531;50.122;8.644;2023-02-28T10:27:37;101719.84;;;4.05;40.75
37694;BME280;23531;50.122;8.644;2023-02-28T10:29:40;101729.06;;;4.00;40.43
37694;BME280;23531;50.122;8.644;2023-02-28T10:31:42;101740.41;;;4.03;40.66
37694;BME280;23531;50.122;8.644;2023-02-28T10:33:44;101722.03;;;3.99;39.83
37694;BME280;23531;50.122;8.644;2023-02-28T10:35:45;101727.38;;;4.09;39.85
37694;BME280;23531;50.122;8.644;2023-02-28T10:37:47;101715.78;;;4.20;39.57
37694;BME280;23531;50.122;8.644;2023-02-28T10:39:48;101727.28;;;4.30;38.76
37694;BME280;23531;50.122;8.644;2023-02-28T10:41:50;101725.47;;;4.21;38.69
37694;BME280;23531;50.122;8.644;2023-02-28T10:43:52;101716.34;;;4.23;38.70
37694;BME280;23531;50.122;8.644;2023-02-28T10:45:58;101718.31;;;4.31;38.93
37694;BME280;23531;50.122;8.644;2023-02-28T10:48:03;101718.31;;;4.31;38.98
37694;BME280;23531;50.122;8.644;2023-02-28T10:50:05;101719.88;;;4.43;39.04
37694;BME280;23531;50.122;8.644;2023-02-28T10:52:07;101715.72;;;4.60;38.12